Time;durP1;ratioP1;P1;durP2;ratioP2;P2;SDS_P1;SDS_P2;PMS_P1;PMS_P2;Temp;Humidity;BMP_temperature;BMP_pressure;BME280_temperature;BME280_humidity;BME280_pressure;Samples;Min_cycle;Max_cycle;Signal;HPM_P1;HPM_P2
2022/07/30 00:01:03;;;;;;;1999.90;999.90;;;20.40;99.90;;;;;;5014385;28;20182;-67
2022/07/30 00:03:29;;;;;;;1999.90;999.90;;;20.30;99.90;;;;;;5014145;28;20174;-66
2022/07/30 00:05:55;;;;;;;1999.90;999.90;;;20.30;99.90;;;;;;5014120;28;20388;-66
2022/07/30 00:08:24;;;;;;;1999.90;999.90;;;20.20;99.90;;;;;;5013970;28;20198;-67
2022/07/30 00:10:50;;;;;;;1999.90;999.90;;;20.10;99.90;;;;;;5014072;28;20252;-65
2022/07/30 00:13:17;;;;;;;1999.90;999.90;;;20.00;99.90;;;;;;5014095;28;20404;-65
2022/07/30 00:15:43;;;;;;;1999.90;999.90;;;20.00;99.90;;;;;;5013940;28;20378;-67
2022/07/30 00:18:08;;;;;;;1999.90;999.90;;;20.00;99.90;;;;;;5012690;28;20410;-66
2022/07/30 00:20:34;;;;;;;1999.90;999.90;;;19.90;99.90;;;;;;5013939;28;20177;-65
2022/07/30 00:23:03;;;;;;;1999.90;999.90;;;19.90;99.90;;;;;;5014027;28;20188;-66
2022/07/30 00:25:29;;;;;;;1999.90;999.90;;;19.90;99.90;;;;;;5013872;28;20231;-66
2022/07/30 00:27:55;;;;;;;1999.90;999.90;;;19.90;99.90;;;;;;5013416;28;20960;-66
2022/07/30 00:30:21;;;;;;;1999.90;999.90;;;19.80;99.90;;;;;;5013952;28;20714;-66
2022/07/30 00:32:46;;;;;;;1999.90;999.90;;;19.70;99.90;;;;;;5013764;28;20635;-67
2022/07/30 00:35:12;;;;;;;1999.90;999.90;;;19.50;99.90;;;;;;5013694;28;20414;-67
2022/07/30 00:37:38;;;;;;;1999.90;999.90;;;19.50;99.90;;;;;;5013425;28;20296;-67
2022/07/30 00:40:05;;;;;;;1999.90;999.90;;;19.50;99.90;;;;;;5013502;28;20266;-66
2022/07/30 00:42:39;;;;;;;1999.90;999.90;;;19.50;99.90;;;;;;5013448;28;20170;-65
2022/07/30 00:45:06;;;;;;;1999.90;999.90;;;19.50;99.90;;;;;;5013425;28;20456;-66
2022/07/30 00:47:32;;;;;;;1999.90;999.90;;;19.50;99.90;;;;;;5013172;28;20452;-66
2022/07/30 00:49:58;;;;;;;1999.90;999.90;;;19.60;99.90;;;;;;5013369;28;20906;-66
2022/07/30 00:52:23;;;;;;;1999.90;999.90;;;19.60;99.90;;;;;;5013662;28;20541;-66
2022/07/30 00:54:49;;;;;;;1999.90;999.90;;;19.50;99.90;;;;;;5012246;28;20169;-66
2022/07/30 00:57:15;;;;;;;1999.90;999.90;;;19.50;99.90;;;;;;5012901;28;20204;-66
2022/07/30 00:59:41;;;;;;;1999.90;999.90;;;19.30;99.90;;;;;;5013342;28;20173;-66
2022/07/30 01:02:06;;;;;;;1999.90;999.90;;;19.30;99.90;;;;;;5013268;28;20242;-66
2022/07/30 01:04:32;;;;;;;1999.90;999.90;;;19.30;99.90;;;;;;5013025;28;20454;-66
2022/07/30 01:06:58;;;;;;;1999.90;999.90;;;19.30;99.90;;;;;;5012734;28;20284;-65
2022/07/30 01:09:23;;;;;;;1999.90;999.90;;;19.30;99.90;;;;;;5013027;28;20179;-66
2022/07/30 01:11:49;;;;;;;1999.90;999.90;;;19.40;99.90;;;;;;5013027;28;20184;-66
2022/07/30 01:14:14;;;;;;;1999.90;999.90;;;19.20;99.90;;;;;;5013134;28;20639;-67
2022/07/30 01:16:41;;;;;;;1999.90;999.90;;;19.20;99.90;;;;;;5012761;28;20299;-66
2022/07/30 01:22:20;;;;;;;1999.90;999.90;;;19.10;99.90;;;;;;5013269;28;20403;-67
2022/07/30 01:24:56;;;;;;;1999.90;999.90;;;18.90;99.90;;;;;;5012786;28;20462;-65
2022/07/30 01:27:23;;;;;;;1999.90;999.90;;;18.90;99.90;;;;;;5012532;28;20463;-66
2022/07/30 01:29:51;;;;;;;1999.90;999.90;;;18.70;99.90;;;;;;5012633;28;20926;-66
2022/07/30 01:32:20;;;;;;;1999.90;999.90;;;18.60;99.90;;;;;;5012763;28;20406;-67
2022/07/30 01:34:46;;;;;;;1999.90;999.90;;;18.40;99.90;;;;;;5012696;28;20765;-65
2022/07/30 01:37:14;;;;;;;1999.90;999.90;;;18.30;99.90;;;;;;5012215;28;20490;-66
2022/07/30 01:39:40;;;;;;;1999.90;999.90;;;18.30;99.90;;;;;;5012515;28;20422;-66
2022/07/30 01:42:09;;;;;;;1999.90;999.90;;;18.20;99.90;;;;;;5012584;28;20472;-67
2022/07/30 01:44:37;;;;;;;1999.90;999.90;;;18.30;99.90;;;;;;5012472;28;20478;-65
2022/07/30 01:47:05;;;;;;;1999.90;999.90;;;18.30;99.90;;;;;;5012061;28;20435;-64
2022/07/30 01:49:33;;;;;;;1999.90;999.90;;;18.30;99.90;;;;;;5012366;28;20413;-65
2022/07/30 01:52:01;;;;;;;1999.90;999.90;;;18.30;99.90;;;;;;5012309;28;20440;-65
2022/07/30 01:54:28;;;;;;;1999.90;999.90;;;18.20;99.90;;;;;;5012391;28;20427;-67
2022/07/30 01:56:56;;;;;;;1999.90;999.90;;;18.20;99.90;;;;;;5011981;28;20993;-66
2022/07/30 01:59:23;;;;;;;1999.90;999.90;;;18.30;99.90;;;;;;5012308;28;20418;-65
2022/07/30 02:01:49;;;;;;;1999.90;999.90;;;18.30;99.90;;;;;;5012155;28;20471;-66
2022/07/30 02:04:15;;;;;;;1999.90;999.90;;;18.30;99.90;;;;;;5012196;28;20541;-66
2022/07/30 02:07:26;;;;;;;1999.90;999.90;;;18.30;99.90;;;;;;5012066;28;20435;-67
2022/07/30 02:10:01;;;;;;;1999.90;999.90;;;18.30;99.90;;;;;;5012238;28;20779;-66
2022/07/30 02:12:29;;;;;;;1999.90;999.90;;;18.30;99.90;;;;;;5012199;28;20402;-67
2022/07/30 02:15:22;;;;;;;1999.90;999.90;;;18.30;99.90;;;;;;5012196;28;20436;-66
2022/07/30 02:18:12;;;;;;;1999.90;999.90;;;18.30;99.90;;;;;;5011978;28;20777;-66
2022/07/30 02:20:42;;;;;;;1999.90;999.90;;;18.40;99.90;;;;;;5012205;28;20464;-67
2022/07/30 02:23:11;;;;;;;1999.90;999.90;;;18.30;99.90;;;;;;5012072;28;20409;-67
2022/07/30 02:25:43;;;;;;;1999.90;999.90;;;18.20;99.90;;;;;;5011941;28;20953;-67
2022/07/30 02:28:11;;;;;;;1999.90;999.90;;;18.20;99.90;;;;;;5011764;28;20850;-66
2022/07/30 02:30:45;;;;;;;1999.90;999.90;;;18.10;99.90;;;;;;5012025;28;20369;-65
2022/07/30 02:33:13;;;;;;;1999.90;999.90;;;18.10;99.90;;;;;;5011974;28;20763;-66
2022/07/30 02:35:40;;;;;;;1999.90;999.90;;;18.10;99.90;;;;;;5011921;28;20414;-67
2022/07/30 02:38:06;;;;;;;1999.90;999.90;;;18.10;99.90;;;;;;5011576;28;20945;-67
2022/07/30 02:40:32;;;;;;;1999.90;999.90;;;18.00;99.90;;;;;;5012699;28;20413;-65
2022/07/30 02:42:59;;;;;;;1999.90;999.90;;;17.90;99.90;;;;;;5015796;28;20458;-65
2022/07/30 02:45:25;;;;;;;1999.90;999.90;;;17.90;99.90;;;;;;5015675;28;20197;-67
2022/07/30 02:48:00;;;;;;;1999.90;999.90;;;17.90;99.90;;;;;;5015353;28;20519;-67
2022/07/30 02:50:27;;;;;;;1999.90;999.90;;;17.90;99.90;;;;;;5015735;28;20433;-67
2022/07/30 02:52:55;;;;;;;1999.90;999.90;;;17.90;99.90;;;;;;5015806;28;20408;-66
2022/07/30 02:55:23;;;;;;;1999.90;999.90;;;17.80;99.90;;;;;;5015679;28;20410;-66
2022/07/30 02:57:52;;;;;;;1999.90;999.90;;;17.80;99.90;;;;;;5015164;28;20432;-67
2022/07/30 03:00:18;;;;;;;1999.90;999.90;;;17.80;99.90;;;;;;5015421;28;20423;-66
2022/07/30 03:02:45;;;;;;;1999.90;999.90;;;17.80;99.90;;;;;;5015425;28;20414;-66
2022/07/30 03:05:12;;;;;;;1999.90;999.90;;;17.70;99.90;;;;;;5015238;28;20971;-67
2022/07/30 03:07:40;;;;;;;1999.90;999.90;;;17.60;99.90;;;;;;5015256;28;20801;-66
2022/07/30 03:10:07;;;;;;;1999.90;999.90;;;17.60;99.90;;;;;;5015238;28;20405;-66
2022/07/30 03:12:34;;;;;;;1999.90;999.90;;;17.50;99.90;;;;;;5015217;28;20400;-66
2022/07/30 03:15:01;;;;;;;1999.90;999.90;;;17.40;99.90;;;;;;5015282;28;20415;-66
2022/07/30 03:17:33;;;;;;;1999.90;999.90;;;17.30;99.90;;;;;;5015224;28;20462;-66
2022/07/30 03:20:01;;;;;;;1999.90;999.90;;;17.30;99.90;;;;;;5015004;28;20419;-66
2022/07/30 03:22:27;;;;;;;1999.90;999.90;;;17.30;99.90;;;;;;5015753;28;20522;-67
2022/07/30 03:24:54;;;;;;;1999.90;999.90;;;17.20;99.90;;;;;;5015585;28;20549;-66
2022/07/30 03:27:22;;;;;;;1999.90;999.90;;;17.10;99.90;;;;;;5014583;28;20454;-67
2022/07/30 03:29:50;;;;;;;1999.90;999.90;;;17.00;99.90;;;;;;5014954;28;20442;-67
2022/07/30 03:32:16;;;;;;;1999.90;999.90;;;16.90;99.90;;;;;;5014861;28;20775;-67
2022/07/30 03:34:43;;;;;;;1999.90;999.90;;;16.90;99.90;;;;;;5014830;28;20423;-65
2022/07/30 03:37:09;;;;;;;1999.90;999.90;;;16.90;99.90;;;;;;5014490;28;20207;-65
2022/07/30 03:39:36;;;;;;;1999.90;999.90;;;16.90;99.90;;;;;;5014836;28;20788;-67
2022/07/30 03:42:03;;;;;;;1999.90;999.90;;;16.80;99.90;;;;;;5015047;28;20439;-67
2022/07/30 03:44:30;;;;;;;1999.90;999.90;;;16.80;99.90;;;;;;5014775;28;20961;-67
2022/07/30 03:46:57;;;;;;;1999.90;999.90;;;16.80;99.90;;;;;;5014260;28;20463;-66
2022/07/30 03:49:24;;;;;;;1999.90;999.90;;;16.80;99.90;;;;;;5014482;28;20430;-66
2022/07/30 03:51:52;;;;;;;1999.90;999.90;;;16.80;99.90;;;;;;5014470;28;20461;-65
2022/07/30 03:54:18;;;;;;;1999.90;999.90;;;16.60;99.90;;;;;;5014416;28;20404;-67
2022/07/30 03:56:44;;;;;;;1999.90;999.90;;;16.60;99.90;;;;;;5014122;28;20426;-66
2022/07/30 03:59:12;;;;;;;1999.90;999.90;;;16.60;99.90;;;;;;5014415;28;20487;-67
2022/07/30 04:01:38;;;;;;;1999.90;999.90;;;16.60;99.90;;;;;;5014411;28;20175;-67
2022/07/30 04:04:12;;;;;;;1999.90;999.90;;;16.60;99.90;;;;;;5014235;28;20465;-67
2022/07/30 04:06:41;;;;;;;1999.90;999.90;;;16.60;99.90;;;;;;5013889;28;20202;-67
2022/07/30 04:09:11;;;;;;;1999.90;999.90;;;16.60;99.90;;;;;;5014356;28;20744;-66
2022/07/30 04:11:37;;;;;;;1999.90;999.90;;;16.60;99.90;;;;;;5014121;28;20409;-67
2022/07/30 04:14:03;;;;;;;1999.90;999.90;;;16.50;99.90;;;;;;5014358;28;20905;-67
2022/07/30 04:17:04;;;;;;;1999.90;999.90;;;16.60;99.90;;;;;;5013683;28;20439;-66
2022/07/30 04:19:35;;;;;;;1999.90;999.90;;;16.50;99.90;;;;;;4953428;29;20190;-67
2022/07/30 04:22:03;;;;;;;1999.90;999.90;;;16.50;99.90;;;;;;5003657;28;20427;-65
2022/07/30 04:24:31;;;;;;;1999.90;999.90;;;16.50;99.90;;;;;;5013865;28;20510;-67
2022/07/30 04:26:59;;;;;;;1999.90;999.90;;;16.50;99.90;;;;;;5013412;28;20950;-65
2022/07/30 04:29:25;;;;;;;1999.90;999.90;;;16.40;99.90;;;;;;5013816;28;20420;-65
2022/07/30 04:31:55;;;;;;;1999.90;999.90;;;16.30;99.90;;;;;;5013847;28;20414;-66
2022/07/30 04:34:21;;;;;;;1999.90;999.90;;;16.40;99.90;;;;;;5013822;28;20413;-66
2022/07/30 04:36:46;;;;;;;1999.90;999.90;;;16.40;99.90;;;;;;5013526;28;20876;-67
2022/07/30 04:39:12;;;;;;;1999.90;999.90;;;16.40;99.90;;;;;;5014055;28;20501;-67
2022/07/30 04:41:38;;;;;;;1999.90;999.90;;;16.40;99.90;;;;;;5013837;28;20175;-66
2022/07/30 04:44:04;;;;;;;1999.90;999.90;;;16.50;99.90;;;;;;5013508;28;20233;-68
2022/07/30 04:46:30;;;;;;;1999.90;999.90;;;16.50;99.90;;;;;;5013189;28;21003;-66
2022/07/30 04:48:56;;;;;;;1999.90;999.90;;;16.50;99.90;;;;;;5013704;28;20413;-66
2022/07/30 04:51:31;;;;;;;1999.90;999.90;;;16.40;99.90;;;;;;5013446;28;20183;-66
2022/07/30 04:53:58;;;;;;;1999.90;999.90;;;16.50;99.90;;;;;;5013723;28;20581;-65
2022/07/30 04:56:25;;;;;;;1999.90;999.90;;;16.50;99.90;;;;;;5012977;28;20919;-67
2022/07/30 04:58:51;;;;;;;1999.90;999.90;;;16.50;99.90;;;;;;5013449;28;20461;-66
2022/07/30 05:01:23;;;;;;;1999.90;999.90;;;16.50;99.90;;;;;;5013179;28;20425;-66
2022/07/30 05:03:51;;;;;;;1999.90;999.90;;;16.60;99.90;;;;;;5012593;28;20467;-66
2022/07/30 05:06:17;;;;;;;1999.90;999.90;;;16.60;99.90;;;;;;5012814;28;20424;-65
2022/07/30 05:08:43;;;;;;;1999.90;999.90;;;16.60;99.90;;;;;;5013129;28;20500;-65
2022/07/30 05:11:13;;;;;;;1999.90;999.90;;;16.70;99.90;;;;;;5013011;28;20928;-65
2022/07/30 05:13:47;;;;;;;1999.90;999.90;;;16.70;99.90;;;;;;5012942;28;20409;-66
2022/07/30 05:16:13;;;;;;;1999.90;999.90;;;16.70;99.90;;;;;;5012759;28;20407;-66
2022/07/30 05:18:40;;;;;;;1999.90;999.90;;;16.80;99.90;;;;;;5013172;28;20911;-66
2022/07/30 05:21:06;;;;;;;1999.90;999.90;;;16.80;99.90;;;;;;5012898;28;20399;-66
2022/07/30 05:23:31;;;;;;;1999.90;999.90;;;16.90;99.90;;;;;;5012815;28;20489;-66
2022/07/30 05:25:57;;;;;;;1999.90;999.90;;;17.10;99.90;;;;;;5012419;28;20545;-66
2022/07/30 05:28:25;;;;;;;1999.90;999.90;;;17.10;99.90;;;;;;5012676;28;20192;-67
2022/07/30 05:30:52;;;;;;;1999.90;999.90;;;17.30;99.90;;;;;;5012867;28;20173;-67
2022/07/30 05:33:18;;;;;;;1999.90;999.90;;;17.40;99.90;;;;;;5012585;28;20401;-67
2022/07/30 05:35:44;;;;;;;1999.90;999.90;;;17.50;99.90;;;;;;5012612;28;20407;-67
2022/07/30 05:38:09;;;;;;;1999.90;999.90;;;17.50;99.90;;;;;;5012475;28;20461;-67
2022/07/30 05:40:35;;;;;;;1999.90;999.90;;;17.50;99.90;;;;;;5012576;28;20172;-66
2022/07/30 05:43:01;;;;;;;1999.90;999.90;;;17.50;99.90;;;;;;5012511;28;20183;-65
2022/07/30 05:45:26;;;;;;;1999.90;999.90;;;17.40;99.90;;;;;;5012478;28;20198;-65
2022/07/30 05:47:52;;;;;;;1999.90;999.90;;;17.50;99.90;;;;;;5012067;28;20200;-68
2022/07/30 05:50:17;;;;;;;1999.90;999.90;;;17.50;99.90;;;;;;5012541;28;20172;-66
2022/07/30 05:52:43;;;;;;;1999.90;999.90;;;17.60;99.90;;;;;;5012504;28;20533;-66
2022/07/30 05:55:09;;;;;;;1999.90;999.90;;;17.60;99.90;;;;;;5012396;28;20228;-67
2022/07/30 05:57:35;;;;;;;1999.90;999.90;;;17.50;99.90;;;;;;5011967;28;20275;-67
2022/07/30 06:00:05;;;;;;;1999.90;999.90;;;17.40;99.90;;;;;;5012394;28;20443;-67
2022/07/30 06:02:30;;;;;;;1999.90;999.90;;;17.40;99.90;;;;;;5012484;28;20227;-68
2022/07/30 06:04:56;;;;;;;1999.90;999.90;;;17.60;99.90;;;;;;5012313;28;20476;-66
2022/07/30 06:07:21;;;;;;;1999.90;999.90;;;17.60;99.90;;;;;;5011922;28;20587;-65
2022/07/30 06:09:47;;;;;;;1999.90;999.90;;;17.50;99.90;;;;;;5012313;28;20674;-66
2022/07/30 06:12:13;;;;;;;1999.90;999.90;;;17.60;99.90;;;;;;5012233;28;20166;-67
2022/07/30 06:14:39;;;;;;;1999.90;999.90;;;17.70;99.90;;;;;;5012515;28;20168;-67
2022/07/30 06:17:04;;;;;;;1999.90;999.90;;;17.80;99.90;;;;;;5015366;28;20421;-67
2022/07/30 06:19:30;;;;;;;1999.90;999.90;;;17.90;99.90;;;;;;5016262;28;20171;-66
2022/07/30 06:21:56;;;;;;;1999.90;999.90;;;17.90;99.90;;;;;;5016207;28;20169;-66
2022/07/30 06:24:21;;;;;;;1999.90;999.90;;;17.90;99.90;;;;;;5016154;28;20197;-66
2022/07/30 06:26:47;;;;;;;1999.90;999.90;;;18.00;99.90;;;;;;5015632;28;20234;-65
2022/07/30 06:29:12;;;;;;;1999.90;999.90;;;18.10;99.90;;;;;;5016052;28;20169;-67
2022/07/30 06:31:39;;;;;;;1999.90;999.90;;;18.00;99.90;;;;;;5015979;28;20164;-66
2022/07/30 06:34:05;;;;;;;1999.90;999.90;;;18.00;99.90;;;;;;5016000;28;20227;-67
2022/07/30 06:36:31;;;;;;;1999.90;999.90;;;18.10;99.90;;;;;;5015683;28;20424;-67
2022/07/30 06:38:56;;;;;;;1999.90;999.90;;;18.20;99.90;;;;;;5016066;28;20559;-67
2022/07/30 06:41:22;;;;;;;1999.90;999.90;;;18.40;99.90;;;;;;5016015;28;20655;-67
2022/07/30 06:43:49;;;;;;;1999.90;999.90;;;18.60;99.90;;;;;;5015915;28;20543;-66
2022/07/30 06:46:15;;;;;;;1999.90;999.90;;;18.70;99.90;;;;;;5016640;28;20173;-67
2022/07/30 06:48:41;;;;;;;1999.90;999.90;;;18.80;99.90;;;;;;5016100;28;20768;-67
2022/07/30 06:51:07;;;;;;;1999.90;999.90;;;18.70;99.90;;;;;;5015670;28;20406;-66
2022/07/30 06:53:33;;;;;;;1999.90;999.90;;;18.40;99.90;;;;;;5015530;28;20925;-66
2022/07/30 06:55:58;;;;;;;1999.90;999.90;;;18.20;99.90;;;;;;5015353;28;20668;-65
2022/07/30 06:58:24;;;;;;;1999.90;999.90;;;18.10;99.90;;;;;;5015389;28;20195;-65
2022/07/30 07:00:49;;;;;;;1999.90;999.90;;;18.10;99.90;;;;;;5015490;28;20171;-65
2022/07/30 07:03:15;;;;;;;1999.90;999.90;;;17.90;99.90;;;;;;5015489;28;20179;-65
2022/07/30 07:05:41;;;;;;;1999.90;999.90;;;17.90;99.90;;;;;;5015250;28;20291;-65
2022/07/30 07:08:06;;;;;;;1999.90;999.90;;;18.00;99.90;;;;;;5014996;28;20185;-67
2022/07/30 07:10:32;;;;;;;1999.90;999.90;;;18.10;99.90;;;;;;5015225;28;20166;-66
2022/07/30 07:12:59;;;;;;;1999.90;999.90;;;18.20;99.90;;;;;;5015458;28;20172;-65
2022/07/30 07:15:25;;;;;;;1999.90;999.90;;;18.30;99.90;;;;;;5015256;28;20207;-66
2022/07/30 07:17:50;;;;;;;1999.90;999.90;;;18.30;99.90;;;;;;5014905;28;20804;-67
2022/07/30 07:20:16;;;;;;;1999.90;999.90;;;18.50;99.90;;;;;;5015118;28;20174;-67
2022/07/30 07:22:42;;;;;;;1999.90;999.90;;;18.60;99.90;;;;;;5015067;28;20172;-66
2022/07/30 07:25:08;;;;;;;1999.90;999.90;;;18.60;99.90;;;;;;5014924;28;20568;-66
2022/07/30 07:27:33;;;;;;;1999.90;999.90;;;18.50;99.90;;;;;;5014031;28;20263;-65
2022/07/30 07:29:59;;;;;;;1999.90;999.90;;;18.60;99.90;;;;;;5014905;28;20880;-65
2022/07/30 07:32:25;;;;;;;1999.90;999.90;;;18.70;99.90;;;;;;5014889;28;20177;-67
2022/07/30 07:34:50;;;;;;;1999.90;999.90;;;18.80;99.90;;;;;;5014897;28;20549;-65
2022/07/30 07:37:16;;;;;;;1999.90;999.90;;;18.90;99.90;;;;;;5014437;28;20193;-65
2022/07/30 07:39:42;;;;;;;1999.90;999.90;;;18.90;99.90;;;;;;5014957;28;20234;-67
2022/07/30 07:42:07;;;;;;;1999.90;999.90;;;18.90;99.90;;;;;;5014709;28;20165;-66
2022/07/30 07:44:33;;;;;;;1999.90;999.90;;;18.90;99.90;;;;;;5014576;28;20229;-67
2022/07/30 07:46:58;;;;;;;1999.90;999.90;;;19.10;99.90;;;;;;5014216;28;20183;-67
2022/07/30 07:49:24;;;;;;;1999.90;999.90;;;19.20;99.90;;;;;;5014591;28;20219;-67
2022/07/30 07:51:50;;;;;;;1999.90;999.90;;;19.20;99.90;;;;;;5014464;28;20204;-66
2022/07/30 07:54:16;;;;;;;1999.90;999.90;;;19.50;99.90;;;;;;5014368;28;20283;-65
2022/07/30 07:56:41;;;;;;;1999.90;999.90;;;19.60;99.90;;;;;;5014050;28;21004;-67
2022/07/30 07:59:07;;;;;;;1999.90;999.90;;;19.80;99.90;;;;;;5014474;28;20165;-66
2022/07/30 08:01:33;;;;;;;1999.90;999.90;;;19.90;99.90;;;;;;5015539;28;20184;-66
2022/07/30 08:03:58;;;;;;;1999.90;999.90;;;19.90;99.90;;;;;;5015381;28;20595;-66
2022/07/30 08:06:25;;;;;;;1999.90;999.90;;;19.80;99.90;;;;;;5013899;28;20181;-66
2022/07/30 08:08:50;;;;;;;1999.90;999.90;;;19.80;99.90;;;;;;5014279;28;20214;-65
2022/07/30 08:11:16;;;;;;;1999.90;999.90;;;19.80;99.90;;;;;;5014574;28;20880;-67
2022/07/30 08:13:42;;;;;;;1999.90;999.90;;;19.80;99.90;;;;;;5014424;28;20736;-66
2022/07/30 08:16:09;;;;;;;1999.90;999.90;;;19.90;99.90;;;;;;5014635;28;20173;-68
2022/07/30 08:18:36;;;;;;;1999.90;999.90;;;19.90;99.90;;;;;;5014804;28;20793;-66
2022/07/30 08:21:02;;;;;;;1999.90;999.90;;;19.90;99.90;;;;;;5013979;28;20773;-65
2022/07/30 08:23:28;;;;;;;1999.90;999.90;;;19.70;99.90;;;;;;5013978;28;20407;-66
2022/07/30 08:25:57;;;;;;;1999.90;999.90;;;19.70;99.90;;;;;;5013819;28;20475;-67
2022/07/30 08:28:23;;;;;;;1999.90;999.90;;;19.90;99.90;;;;;;5013759;28;20294;-65
2022/07/30 08:30:48;;;;;;;1999.90;999.90;;;20.00;99.90;;;;;;5020140;28;20538;-66
2022/07/30 08:33:14;;;;;;;1999.90;999.90;;;20.10;99.90;;;;;;5032112;28;20472;-67
2022/07/30 08:35:40;;;;;;;1999.90;999.90;;;20.20;99.90;;;;;;5032450;28;20163;-68
2022/07/30 08:38:06;;;;;;;1999.90;999.90;;;20.40;99.90;;;;;;5031245;28;20800;-68
2022/07/30 08:40:34;;;;;;;1999.90;999.90;;;20.50;99.90;;;;;;5032745;28;20169;-65
2022/07/30 08:43:03;;;;;;;1999.90;999.90;;;20.70;99.90;;;;;;5032643;28;20164;-66
2022/07/30 08:45:30;;;;;;;1999.90;999.90;;;20.80;99.90;;;;;;5032403;28;20474;-67
2022/07/30 08:47:58;;;;;;;1999.90;999.90;;;20.70;99.90;;;;;;5032334;28;20434;-68
2022/07/30 08:50:24;;;;;;;1999.90;999.90;;;20.60;99.90;;;;;;5032577;28;20425;-66
2022/07/30 08:52:54;;;;;;;1999.90;999.90;;;20.70;99.90;;;;;;5032027;28;20927;-66
2022/07/30 08:55:20;;;;;;;1999.90;999.90;;;20.90;99.90;;;;;;5032528;28;20416;-67
2022/07/30 08:57:46;;;;;;;1999.90;999.90;;;21.00;99.90;;;;;;5032049;28;20478;-66
2022/07/30 09:00:13;;;;;;;1999.90;999.90;;;21.10;99.90;;;;;;5031804;28;20496;-66
2022/07/30 09:02:39;;;;;;;1999.90;999.90;;;21.30;99.90;;;;;;5031990;28;20968;-66
2022/07/30 09:05:05;;;;;;;1999.90;999.90;;;21.50;99.90;;;;;;5032382;28;20611;-68
2022/07/30 09:07:32;;;;;;;1999.90;999.90;;;21.70;99.90;;;;;;5032501;28;20664;-67
2022/07/30 09:09:58;;;;;;;1999.90;999.90;;;21.60;99.90;;;;;;5034427;28;20436;-67
2022/07/30 09:12:43;;;;;;;1999.90;999.90;;;21.50;99.90;;;;;;5032619;28;20396;-67
2022/07/30 09:15:14;;;;;;;1999.90;999.90;;;21.40;99.90;;;;;;5031612;28;20165;-65
2022/07/30 09:17:52;;;;;;;1999.90;999.90;;;21.80;99.90;;;;;;5031813;28;20530;-67
2022/07/30 09:20:20;;;;;;;1999.90;999.90;;;22.00;99.90;;;;;;5031826;28;20435;-65
2022/07/30 09:22:48;;;;;;;1999.90;999.90;;;22.30;99.90;;;;;;5031712;28;20839;-67
2022/07/30 09:25:14;;;;;;;1999.90;999.90;;;22.50;99.90;;;;;;5031913;28;20416;-67
2022/07/30 09:27:48;;;;;;;1999.90;999.90;;;22.80;99.90;;;;;;5031217;28;20466;-67
2022/07/30 09:30:15;;;;;;;1999.90;999.90;;;23.00;99.90;;;;;;5031513;28;20443;-66
2022/07/30 09:32:52;;;;;;;1999.90;999.90;;;23.00;99.90;;;;;;5031768;28;20411;-66
2022/07/30 09:35:18;;;;;;;1999.90;999.90;;;23.20;99.90;;;;;;5032098;28;20409;-66
2022/07/30 09:37:45;;;;;;;1999.90;999.90;;;23.20;99.90;;;;;;5030925;28;20779;-65
2022/07/30 09:40:16;;;;;;;1999.90;999.90;;;22.70;99.90;;;;;;5031490;28;20493;-65
2022/07/30 09:42:43;;;;;;;1999.90;999.90;;;22.40;99.90;;;;;;5031076;28;20409;-65
2022/07/30 09:45:08;;;;;;;1999.90;999.90;;;22.40;99.90;;;;;;5031087;28;20429;-65
2022/07/30 09:47:43;;;;;;;1999.90;999.90;;;22.50;99.90;;;;;;5029013;28;20421;-66
2022/07/30 09:50:12;;;;;;;1999.90;999.90;;;22.50;99.90;;;;;;5030121;28;20373;-66
2022/07/30 09:52:43;;;;;;;1999.90;999.90;;;22.60;99.90;;;;;;5030628;28;20429;-67
2022/07/30 09:55:10;;;;;;;1999.90;999.90;;;22.90;99.90;;;;;;5031660;28;20389;-65
2022/07/30 09:58:03;;;;;;;1999.90;999.90;;;23.30;99.90;;;;;;5031508;28;20433;-66
2022/07/30 10:00:31;;;;;;;1999.90;999.90;;;23.10;99.90;;;;;;5030479;28;20455;-65
2022/07/30 10:02:59;;;;;;;1999.90;999.90;;;22.80;99.90;;;;;;5031391;28;20404;-67
2022/07/30 10:05:25;;;;;;;1999.90;999.90;;;22.70;99.90;;;;;;5031429;28;20828;-66
2022/07/30 10:07:59;;;;;;;1999.90;999.90;;;22.50;99.90;;;;;;5031482;28;20422;-66
2022/07/30 10:10:27;;;;;;;1999.90;999.90;;;22.40;99.90;;;;;;5031243;28;20186;-66
2022/07/30 10:13:02;;;;;;;1999.90;999.90;;;22.50;99.90;;;;;;5032912;28;20918;-66
2022/07/30 10:15:30;;;;;;;1999.90;999.90;;;22.60;99.90;;;;;;5030685;28;20506;-67
2022/07/30 10:17:56;;;;;;;1999.90;999.90;;;22.80;99.90;;;;;;5030815;28;20787;-67
2022/07/30 10:20:22;;;;;;;1999.90;999.90;;;22.90;99.90;;;;;;5031069;28;20422;-66
2022/07/30 10:22:48;;;;;;;1999.90;999.90;;;23.10;99.90;;;;;;5030613;28;20423;-66
2022/07/30 10:25:20;;;;;;;1999.90;999.90;;;23.30;99.90;;;;;;5031261;28;20850;-67
2022/07/30 10:27:49;;;;;;;1999.90;999.90;;;23.30;99.90;;;;;;5031542;28;20417;-65
2022/07/30 10:30:16;;;;;;;1999.90;999.90;;;23.20;99.90;;;;;;5031398;28;20501;-66
2022/07/30 10:32:43;;;;;;;1999.90;999.90;;;23.10;99.90;;;;;;5031851;28;21076;-66
2022/07/30 10:35:10;;;;;;;1999.90;999.90;;;23.30;99.90;;;;;;5031918;28;20774;-66
2022/07/30 10:37:43;;;;;;;1999.90;999.90;;;23.60;99.90;;;;;;5030852;28;20931;-66
2022/07/30 10:40:16;;;;;;;1999.90;999.90;;;23.80;99.90;;;;;;5031630;28;20419;-66
2022/07/30 10:43:14;;;;;;;1999.90;999.90;;;23.90;99.90;;;;;;5031699;28;20378;-66
2022/07/30 10:45:48;;;;;;;1999.90;999.90;;;23.90;99.90;;;;;;5031720;28;20462;-66
2022/07/30 10:48:18;;;;;;;1999.90;999.90;;;23.80;99.90;;;;;;5031551;28;20431;-66
2022/07/30 10:50:55;;;;;;;1999.90;999.90;;;23.70;99.90;;;;;;5031529;28;20407;-66
2022/07/30 10:53:39;;;;;;;1999.90;999.90;;;23.90;99.90;;;;;;5031293;28;20944;-65
2022/07/30 10:56:22;;;;;;;1999.90;999.90;;;24.10;99.90;;;;;;5031060;28;20399;-66
2022/07/30 10:59:05;;;;;;;1999.90;999.90;;;24.40;99.90;;;;;;5031281;28;20439;-66
2022/07/30 11:01:57;;;;;;;1999.90;999.90;;;24.50;99.20;;;;;;5032079;28;20399;-65
2022/07/30 11:04:27;;;;;;;1999.90;999.90;;;24.50;97.50;;;;;;5029386;28;20433;-65
2022/07/30 11:07:39;;;;;;;1999.90;999.90;;;24.50;96.50;;;;;;5034392;28;20517;-66
2022/07/30 11:10:04;;;;;;;1999.90;999.90;;;24.50;98.80;;;;;;5033027;28;20385;-67
2022/07/30 11:12:46;;;;;;;1999.90;999.90;;;24.70;93.20;;;;;;5035109;28;20486;-66
2022/07/30 11:15:13;;;;;;;1999.90;999.90;;;24.50;91.40;;;;;;5035263;28;20544;-66
2022/07/30 11:17:57;;;;;;;1999.90;999.90;;;24.50;91.90;;;;;;5035068;28;20415;-66
2022/07/30 11:20:23;;;;;;;1999.90;999.90;;;24.70;93.10;;;;;;5034778;28;20429;-66
2022/07/30 11:22:49;;;;;;;1999.90;999.90;;;24.90;91.90;;;;;;5034379;28;20377;-66
2022/07/30 11:25:20;;;;;;;1999.90;999.90;;;25.40;93.10;;;;;;5034804;28;20293;-66
2022/07/30 11:27:49;;;;;;;1999.90;999.90;;;25.60;93.10;;;;;;5033349;28;20257;-64
2022/07/30 11:30:14;;;;;;;1999.90;999.90;;;25.50;92.70;;;;;;5034114;28;20386;-65
2022/07/30 11:32:41;;;;;;;1999.90;999.90;;;25.50;92.50;;;;;;5033918;28;20760;-66
2022/07/30 11:35:29;;;;;;;1999.90;999.90;;;25.70;92.10;;;;;;5033701;28;20555;-64
2022/07/30 11:38:01;;;;;;;1999.90;999.90;;;25.80;90.50;;;;;;5033598;28;20415;-64
2022/07/30 11:40:49;;;;;;;1999.90;999.90;;;25.90;89.80;;;;;;5033868;28;20744;-65
2022/07/30 11:43:23;;;;;;;1999.90;999.90;;;25.80;87.70;;;;;;5027736;28;20435;-66
2022/07/30 11:46:21;;;;;;;1999.90;999.90;;;26.10;84.40;;;;;;5034066;28;20859;-66
2022/07/30 11:48:56;;;;;;;1999.90;999.90;;;26.50;80.10;;;;;;5034100;28;20370;-66
2022/07/30 11:51:23;;;;;;;1999.90;999.90;;;26.60;75.90;;;;;;5033938;28;20407;-66
2022/07/30 11:53:59;;;;;;;1999.90;999.90;;;26.30;69.00;;;;;;5034212;28;20382;-66
2022/07/30 11:56:25;;;;;;;1999.90;999.90;;;26.10;65.90;;;;;;5034425;28;20393;-65
2022/07/30 11:59:03;;;;;;;1999.90;999.90;;;26.10;66.20;;;;;;5033165;28;20397;-64
2022/07/30 12:01:30;;;;;;;1999.90;999.90;;;26.20;64.50;;;;;;5033467;28;20176;-64
2022/07/30 12:03:56;;;;;;;1999.90;999.90;;;26.50;61.00;;;;;;5034006;28;21008;-66
2022/07/30 12:06:22;;;;;;;1999.90;999.90;;;27.00;62.10;;;;;;5033523;28;20411;-66
2022/07/30 12:08:52;;;;;;;1999.90;999.90;;;27.30;59.60;;;;;;5034256;28;20843;-66